Terminal Aerodrome Forecast
Issued by NWS

Home | Current Version | Previous Version | Text Only | Print | Product List | Glossary On
Versions: 1 2 3 4 5 6 7 8 9 10 11 12 13 14 15 16 17 18
000
FTUS46 KLOX 311100
TAFVNY
TAF
KVNY 311140Z 3112/0112 VRB03KT P6SM OVC008
     FM311700 VRB03KT P6SM SCT250
     FM312000 01012KT P6SM SKC
     FM010400 VRB03KT P6SM SKC=

USA.gov is the U.S. government's official web portal to all federal, state and local government web resources and services.